sensor_id;sensor_type;location;lat;lon;timestamp;pressure;altitude;pressure_sealevel;temperature;humidity
60417;BME280;46263;44.726;10.396;2023-08-30T00:00:34;99350.41;;;22.44;68.18
60417;BME280;46263;44.726;10.396;2023-08-30T00:02:59;99354.81;;;22.47;68.01
60417;BME280;46263;44.726;10.396;2023-08-30T00:05:25;99347.88;;;22.50;68.29
60417;BME280;46263;44.726;10.396;2023-08-30T00:07:53;99359.72;;;22.58;66.85
60417;BME280;46263;44.726;10.396;2023-08-30T00:10:18;99353.78;;;22.54;66.46
60417;BME280;46263;44.726;10.396;2023-08-30T00:12:44;99356.63;;;22.54;66.67
60417;BME280;46263;44.726;10.396;2023-08-30T00:15:09;99362.25;;;22.52;68.40
60417;BME280;46263;44.726;10.396;2023-08-30T00:17:35;99359.91;;;22.49;69.17
60417;BME280;46263;44.726;10.396;2023-08-30T00:20:00;99366.22;;;22.47;68.56
60417;BME280;46263;44.726;10.396;2023-08-30T00:22:26;99369.81;;;22.48;67.72
60417;BME280;46263;44.726;10.396;2023-08-30T00:24:53;99367.59;;;22.46;67.12
60417;BME280;46263;44.726;10.396;2023-08-30T00:27:18;99378.78;;;22.42;69.04
60417;BME280;46263;44.726;10.396;2023-08-30T00:29:46;99404.28;;;22.40;68.69
60417;BME280;46263;44.726;10.396;2023-08-30T00:32:11;99411.88;;;22.36;68.71
60417;BME280;46263;44.726;10.396;2023-08-30T00:34:37;99388.56;;;22.39;68.36
60417;BME280;46263;44.726;10.396;2023-08-30T00:37:02;99388.38;;;22.35;67.98
60417;BME280;46263;44.726;10.396;2023-08-30T00:39:28;99396.28;;;22.37;68.41
60417;BME280;46263;44.726;10.396;2023-08-30T00:41:54;99397.03;;;22.37;68.72
60417;BME280;46263;44.726;10.396;2023-08-30T00:44:19;99404.69;;;22.35;68.31
60417;BME280;46263;44.726;10.396;2023-08-30T00:46:45;99409.78;;;22.36;68.32
60417;BME280;46263;44.726;10.396;2023-08-30T00:49:10;99413.63;;;22.29;68.47
60417;BME280;46263;44.726;10.396;2023-08-30T00:51:36;99396.66;;;22.31;68.33
60417;BME280;46263;44.726;10.396;2023-08-30T00:54:02;99386.28;;;22.24;68.38
60417;BME280;46263;44.726;10.396;2023-08-30T00:56:28;99390.06;;;22.15;69.73
60417;BME280;46263;44.726;10.396;2023-08-30T00:58:54;99391.13;;;22.22;69.63
60417;BME280;46263;44.726;10.396;2023-08-30T01:01:20;99393.81;;;22.06;70.39
60417;BME280;46263;44.726;10.396;2023-08-30T01:03:46;99380.53;;;22.11;69.98
60417;BME280;46263;44.726;10.396;2023-08-30T01:06:11;99380.03;;;22.14;69.36
60417;BME280;46263;44.726;10.396;2023-08-30T01:08:40;99381.75;;;22.19;68.47
60417;BME280;46263;44.726;10.396;2023-08-30T01:11:11;99394.63;;;22.20;68.73
60417;BME280;46263;44.726;10.396;2023-08-30T01:13:46;99392.69;;;22.11;69.85
60417;BME280;46263;44.726;10.396;2023-08-30T01:16:16;99397.63;;;22.11;69.81
60417;BME280;46263;44.726;10.396;2023-08-30T01:18:43;99401.81;;;21.96;70.28
60417;BME280;46263;44.726;10.396;2023-08-30T01:21:13;99387.38;;;22.06;70.01
60417;BME280;46263;44.726;10.396;2023-08-30T01:23:49;99385.06;;;22.02;70.53
60417;BME280;46263;44.726;10.396;2023-08-30T01:26:42;99383.34;;;21.97;71.14
60417;BME280;46263;44.726;10.396;2023-08-30T01:29:11;99384.22;;;22.00;70.71
60417;BME280;46263;44.726;10.396;2023-08-30T01:31:38;99394.84;;;21.99;71.17
60417;BME280;46263;44.726;10.396;2023-08-30T01:34:05;99392.22;;;22.03;70.26
60417;BME280;46263;44.726;10.396;2023-08-30T01:36:31;99386.53;;;22.03;70.30
60417;BME280;46263;44.726;10.396;2023-08-30T01:38:58;99389.47;;;22.05;70.32
60417;BME280;46263;44.726;10.396;2023-08-30T01:41:25;99405.31;;;22.08;69.67
60417;BME280;46263;44.726;10.396;2023-08-30T01:43:52;99394.69;;;22.09;69.93
60417;BME280;46263;44.726;10.396;2023-08-30T01:46:18;99393.94;;;22.08;70.07
60417;BME280;46263;44.726;10.396;2023-08-30T01:48:46;99384.03;;;22.09;68.97
60417;BME280;46263;44.726;10.396;2023-08-30T01:51:14;99394.78;;;22.11;68.79
60417;BME280;46263;44.726;10.396;2023-08-30T01:53:42;99385.84;;;22.16;68.10
60417;BME280;46263;44.726;10.396;2023-08-30T01:56:08;99381.00;;;22.19;68.07
60417;BME280;46263;44.726;10.396;2023-08-30T01:58:34;99389.44;;;22.17;68.13
60417;BME280;46263;44.726;10.396;2023-08-30T02:01:00;99379.50;;;22.18;68.88
60417;BME280;46263;44.726;10.396;2023-08-30T02:03:25;99381.31;;;22.11;68.75
60417;BME280;46263;44.726;10.396;2023-08-30T02:06:07;99380.91;;;22.17;69.17
60417;BME280;46263;44.726;10.396;2023-08-30T02:09:19;99382.72;;;22.24;68.63
60417;BME280;46263;44.726;10.396;2023-08-30T02:11:48;99382.34;;;22.18;68.89
60417;BME280;46263;44.726;10.396;2023-08-30T02:14:17;99382.59;;;22.22;68.69
60417;BME280;46263;44.726;10.396;2023-08-30T02:16:47;99383.97;;;22.21;69.14
60417;BME280;46263;44.726;10.396;2023-08-30T02:19:14;99379.75;;;22.22;68.90
60417;BME280;46263;44.726;10.396;2023-08-30T02:21:46;99374.56;;;22.18;68.75
60417;BME280;46263;44.726;10.396;2023-08-30T02:24:11;99379.00;;;22.21;68.77
60417;BME280;46263;44.726;10.396;2023-08-30T02:26:37;99379.00;;;22.21;68.84
60417;BME280;46263;44.726;10.396;2023-08-30T02:29:03;99366.25;;;22.22;69.17
60417;BME280;46263;44.726;10.396;2023-08-30T02:31:28;99367.97;;;22.27;69.75
60417;BME280;46263;44.726;10.396;2023-08-30T02:33:54;99375.00;;;22.26;69.67
60417;BME280;46263;44.726;10.396;2023-08-30T02:36:19;99375.00;;;22.26;70.00
60417;BME280;46263;44.726;10.396;2023-08-30T02:38:45;99370.91;;;22.29;70.08
60417;BME280;46263;44.726;10.396;2023-08-30T02:41:10;99361.41;;;22.25;69.22
60417;BME280;46263;44.726;10.396;2023-08-30T02:43:36;99369.97;;;22.25;68.90
60417;BME280;46263;44.726;10.396;2023-08-30T02:46:02;99367.09;;;22.25;69.44
60417;BME280;46263;44.726;10.396;2023-08-30T02:48:29;99362.53;;;22.20;70.14
60417;BME280;46263;44.726;10.396;2023-08-30T02:50:55;99371.84;;;22.20;71.47
60417;BME280;46263;44.726;10.396;2023-08-30T02:53:20;99372.03;;;22.24;70.31
60417;BME280;46263;44.726;10.396;2023-08-30T02:55:47;99360.78;;;22.26;70.75
60417;BME280;46263;44.726;10.396;2023-08-30T02:58:13;99367.84;;;22.25;70.16
60417;BME280;46263;44.726;10.396;2023-08-30T03:00:38;99364.25;;;22.25;70.13
60417;BME280;46263;44.726;10.396;2023-08-30T03:03:04;99362.25;;;22.27;70.96
60417;BME280;46263;44.726;10.396;2023-08-30T03:05:29;99364.53;;;22.17;71.27
60417;BME280;46263;44.726;10.396;2023-08-30T03:07:55;99360.22;;;22.16;70.72
60417;BME280;46263;44.726;10.396;2023-08-30T03:10:20;99363.28;;;22.20;70.67
60417;BME280;46263;44.726;10.396;2023-08-30T03:12:45;99366.72;;;22.30;70.50
60417;BME280;46263;44.726;10.396;2023-08-30T03:15:11;99366.34;;;22.24;70.12
60417;BME280;46263;44.726;10.396;2023-08-30T03:17:36;99363.63;;;22.26;70.83
60417;BME280;46263;44.726;10.396;2023-08-30T03:20:02;99374.78;;;22.22;71.21
60417;BME280;46263;44.726;10.396;2023-08-30T03:22:30;99370.44;;;22.21;71.63
60417;BME280;46263;44.726;10.396;2023-08-30T03:24:55;99364.66;;;22.19;70.76
60417;BME280;46263;44.726;10.396;2023-08-30T03:27:21;99359.41;;;22.27;70.23
60417;BME280;46263;44.726;10.396;2023-08-30T03:29:46;99360.25;;;22.30;70.14
60417;BME280;46263;44.726;10.396;2023-08-30T03:32:16;99359.69;;;22.20;70.19
60417;BME280;46263;44.726;10.396;2023-08-30T03:34:44;99359.94;;;22.24;70.37
60417;BME280;46263;44.726;10.396;2023-08-30T03:37:10;99364.75;;;22.21;71.37
60417;BME280;46263;44.726;10.396;2023-08-30T03:39:36;99360.97;;;22.17;72.41
60417;BME280;46263;44.726;10.396;2023-08-30T03:42:01;99366.16;;;22.20;73.07
60417;BME280;46263;44.726;10.396;2023-08-30T03:44:26;99357.81;;;22.24;71.55
60417;BME280;46263;44.726;10.396;2023-08-30T03:46:52;99357.47;;;22.18;71.73
60417;BME280;46263;44.726;10.396;2023-08-30T03:49:17;99358.13;;;22.17;71.93
60417;BME280;46263;44.726;10.396;2023-08-30T03:51:43;99351.69;;;22.16;72.11
60417;BME280;46263;44.726;10.396;2023-08-30T03:54:08;99346.94;;;22.21;71.26
60417;BME280;46263;44.726;10.396;2023-08-30T03:56:38;99350.50;;;22.21;71.60
60417;BME280;46263;44.726;10.396;2023-08-30T03:59:04;99353.38;;;22.21;71.80
60417;BME280;46263;44.726;10.396;2023-08-30T04:01:29;99360.13;;;22.28;71.49
60417;BME280;46263;44.726;10.396;2023-08-30T04:03:54;99357.94;;;22.26;71.08
60417;BME280;46263;44.726;10.396;2023-08-30T04:06:20;99354.97;;;22.24;72.26
60417;BME280;46263;44.726;10.396;2023-08-30T04:08:47;99366.34;;;22.24;72.12
60417;BME280;46263;44.726;10.396;2023-08-30T04:11:12;99357.09;;;22.24;69.66
60417;BME280;46263;44.726;10.396;2023-08-30T04:13:37;99367.59;;;22.21;70.84
60417;BME280;46263;44.726;10.396;2023-08-30T04:16:03;99371.09;;;22.20;70.42
60417;BME280;46263;44.726;10.396;2023-08-30T04:18:29;99367.38;;;22.17;70.36
60417;BME280;46263;44.726;10.396;2023-08-30T04:20:54;99369.72;;;22.21;70.44
60417;BME280;46263;44.726;10.396;2023-08-30T04:23:20;99372.97;;;22.15;70.89
60417;BME280;46263;44.726;10.396;2023-08-30T04:25:45;99376.78;;;22.20;71.10
60417;BME280;46263;44.726;10.396;2023-08-30T04:28:10;99370.56;;;22.23;71.44
60417;BME280;46263;44.726;10.396;2023-08-30T04:30:36;99378.25;;;22.21;71.38
60417;BME280;46263;44.726;10.396;2023-08-30T04:33:03;99367.59;;;22.21;72.02
60417;BME280;46263;44.726;10.396;2023-08-30T04:35:30;99370.81;;;22.27;72.21
60417;BME280;46263;44.726;10.396;2023-08-30T04:37:55;99370.81;;;22.27;72.42
60417;BME280;46263;44.726;10.396;2023-08-30T04:40:20;99369.31;;;22.26;72.42
60417;BME280;46263;44.726;10.396;2023-08-30T04:42:46;99367.59;;;22.21;72.24
60417;BME280;46263;44.726;10.396;2023-08-30T04:45:11;99375.66;;;22.25;72.96
60417;BME280;46263;44.726;10.396;2023-08-30T04:47:37;99371.84;;;22.20;73.18
60417;BME280;46263;44.726;10.396;2023-08-30T04:50:03;99369.97;;;22.25;72.85
60417;BME280;46263;44.726;10.396;2023-08-30T04:52:28;99376.06;;;22.19;72.67
60417;BME280;46263;44.726;10.396;2023-08-30T04:54:54;99371.19;;;22.22;72.52
60417;BME280;46263;44.726;10.396;2023-08-30T04:57:19;99374.56;;;22.18;72.28
60417;BME280;46263;44.726;10.396;2023-08-30T04:59:45;99377.41;;;22.18;73.79
60417;BME280;46263;44.726;10.396;2023-08-30T05:02:11;99381.00;;;22.19;74.07
60417;BME280;46263;44.726;10.396;2023-08-30T05:04:36;99381.38;;;22.13;74.19
60417;BME280;46263;44.726;10.396;2023-08-30T05:07:02;99385.63;;;22.12;73.61
60417;BME280;46263;44.726;10.396;2023-08-30T05:09:30;99380.34;;;22.07;73.67
60417;BME280;46263;44.726;10.396;2023-08-30T05:11:55;99394.44;;;22.05;73.00
60417;BME280;46263;44.726;10.396;2023-08-30T05:14:21;99397.75;;;22.13;73.45
60417;BME280;46263;44.726;10.396;2023-08-30T05:16:49;99397.34;;;22.18;72.31
60417;BME280;46263;44.726;10.396;2023-08-30T05:19:14;99402.91;;;22.16;73.57
60417;BME280;46263;44.726;10.396;2023-08-30T05:21:42;99401.88;;;22.23;70.01
60417;BME280;46263;44.726;10.396;2023-08-30T05:24:08;99405.09;;;22.29;71.28
60417;BME280;46263;44.726;10.396;2023-08-30T05:26:33;99401.78;;;22.21;73.34
60417;BME280;46263;44.726;10.396;2023-08-30T05:28:59;99420.69;;;22.28;72.43
60417;BME280;46263;44.726;10.396;2023-08-30T05:31:24;99416.38;;;22.27;72.40
60417;BME280;46263;44.726;10.396;2023-08-30T05:33:50;99414.13;;;22.26;73.92
60417;BME280;46263;44.726;10.396;2023-08-30T05:36:16;99413.91;;;22.22;74.00
60417;BME280;46263;44.726;10.396;2023-08-30T05:38:42;99414.13;;;22.26;73.68
60417;BME280;46263;44.726;10.396;2023-08-30T05:41:07;99419.09;;;22.25;74.11
60417;BME280;46263;44.726;10.396;2023-08-30T05:43:33;99419.22;;;22.27;72.55
60417;BME280;46263;44.726;10.396;2023-08-30T05:45:59;99412.63;;;22.36;71.55
60417;BME280;46263;44.726;10.396;2023-08-30T05:48:28;99419.91;;;22.39;71.20
60417;BME280;46263;44.726;10.396;2023-08-30T05:50:53;99421.50;;;22.42;70.38
60417;BME280;46263;44.726;10.396;2023-08-30T05:53:19;99421.63;;;22.44;71.20
60417;BME280;46263;44.726;10.396;2023-08-30T05:55:44;99425.19;;;22.45;69.97
60417;BME280;46263;44.726;10.396;2023-08-30T05:58:10;99421.31;;;22.51;69.73
60417;BME280;46263;44.726;10.396;2023-08-30T06:00:35;99427.41;;;22.46;70.39
60417;BME280;46263;44.726;10.396;2023-08-30T06:03:00;99417.41;;;22.45;70.96
60417;BME280;46263;44.726;10.396;2023-08-30T06:05:26;99424.78;;;22.50;71.21
60417;BME280;46263;44.726;10.396;2023-08-30T06:07:52;99430.25;;;22.46;73.16
60417;BME280;46263;44.726;10.396;2023-08-30T06:10:18;99433.66;;;22.56;70.90
60417;BME280;46263;44.726;10.396;2023-08-30T06:12:43;99435.25;;;22.59;70.62
60417;BME280;46263;44.726;10.396;2023-08-30T06:15:09;99440.53;;;22.51;70.87
60417;BME280;46263;44.726;10.396;2023-08-30T06:17:34;99437.78;;;22.53;71.54
60417;BME280;46263;44.726;10.396;2023-08-30T06:19:59;99439.75;;;22.50;71.52
60417;BME280;46263;44.726;10.396;2023-08-30T06:22:25;99442.22;;;22.56;71.71
60417;BME280;46263;44.726;10.396;2023-08-30T06:24:50;99449.09;;;22.64;70.11
60417;BME280;46263;44.726;10.396;2023-08-30T06:27:16;99454.56;;;22.60;69.71
60417;BME280;46263;44.726;10.396;2023-08-30T06:29:41;99465.13;;;22.58;69.01
60417;BME280;46263;44.726;10.396;2023-08-30T06:32:07;99466.72;;;22.61;69.28
60417;BME280;46263;44.726;10.396;2023-08-30T06:34:32;99474.13;;;22.66;68.15
60417;BME280;46263;44.726;10.396;2023-08-30T06:36:57;99474.13;;;22.66;68.21
60417;BME280;46263;44.726;10.396;2023-08-30T06:39:23;99483.00;;;22.72;67.28
60417;BME280;46263;44.726;10.396;2023-08-30T06:41:48;99485.22;;;22.73;66.82
60417;BME280;46263;44.726;10.396;2023-08-30T06:44:14;99481.09;;;22.76;67.42
60417;BME280;46263;44.726;10.396;2023-08-30T06:46:39;99488.91;;;22.76;68.49
60417;BME280;46263;44.726;10.396;2023-08-30T06:49:05;99488.91;;;22.76;67.78
60417;BME280;46263;44.726;10.396;2023-08-30T06:51:31;99498.31;;;22.78;67.71
60417;BME280;46263;44.726;10.396;2023-08-30T06:53:56;99490.28;;;22.75;67.98
60417;BME280;46263;44.726;10.396;2023-08-30T06:56:26;99499.03;;;22.79;67.53
60417;BME280;46263;44.726;10.396;2023-08-30T06:58:51;99497.06;;;22.81;68.52
60417;BME280;46263;44.726;10.396;2023-08-30T07:01:17;99499.81;;;22.79;70.42
60417;BME280;46263;44.726;10.396;2023-08-30T07:03:42;99499.91;;;22.81;70.40
60417;BME280;46263;44.726;10.396;2023-08-30T07:06:09;99498.34;;;22.92;69.66
60417;BME280;46263;44.726;10.396;2023-08-30T07:08:34;99500.75;;;22.84;71.13
60417;BME280;46263;44.726;10.396;2023-08-30T07:11:00;99495.50;;;22.92;71.95
60417;BME280;46263;44.726;10.396;2023-08-30T07:13:26;99500.03;;;22.97;70.45
60417;BME280;46263;44.726;10.396;2023-08-30T07:15:51;99500.03;;;22.97;70.71
60417;BME280;46263;44.726;10.396;2023-08-30T07:18:16;99499.41;;;22.98;71.71
60417;BME280;46263;44.726;10.396;2023-08-30T07:20:42;99503.75;;;22.99;70.58
60417;BME280;46263;44.726;10.396;2023-08-30T07:23:08;99501.75;;;23.02;70.54
60417;BME280;46263;44.726;10.396;2023-08-30T07:25:33;99509.06;;;23.05;71.02
60417;BME280;46263;44.726;10.396;2023-08-30T07:27:59;99506.44;;;23.09;72.06
60417;BME280;46263;44.726;10.396;2023-08-30T07:30:25;99502.09;;;23.08;73.01
60417;BME280;46263;44.726;10.396;2023-08-30T07:32:51;99512.25;;;23.11;71.82
60417;BME280;46263;44.726;10.396;2023-08-30T07:35:16;99501.38;;;23.21;70.78
60417;BME280;46263;44.726;10.396;2023-08-30T07:37:42;99502.66;;;23.31;69.00
60417;BME280;46263;44.726;10.396;2023-08-30T07:40:08;99505.63;;;23.33;69.53
60417;BME280;46263;44.726;10.396;2023-08-30T07:42:34;99512.16;;;23.35;69.11
60417;BME280;46263;44.726;10.396;2023-08-30T07:44:59;99507.75;;;23.33;67.62
60417;BME280;46263;44.726;10.396;2023-08-30T07:47:24;99501.69;;;23.40;67.01
60417;BME280;46263;44.726;10.396;2023-08-30T07:49:50;99496.94;;;23.44;67.06
60417;BME280;46263;44.726;10.396;2023-08-30T07:52:15;99498.53;;;23.47;66.52
60417;BME280;46263;44.726;10.396;2023-08-30T07:54:41;99494.31;;;23.48;64.21
60417;BME280;46263;44.726;10.396;2023-08-30T07:57:07;99505.41;;;23.56;63.97
60417;BME280;46263;44.726;10.396;2023-08-30T07:59:36;99506.16;;;23.56;65.47
60417;BME280;46263;44.726;10.396;2023-08-30T08:02:05;99508.25;;;23.69;65.25
60417;BME280;46263;44.726;10.396;2023-08-30T08:04:33;99511.53;;;23.64;63.42
60417;BME280;46263;44.726;10.396;2023-08-30T08:06:59;99506.75;;;23.68;63.80
60417;BME280;46263;44.726;10.396;2023-08-30T08:09:24;99514.81;;;23.85;64.02
60417;BME280;46263;44.726;10.396;2023-08-30T08:11:50;99510.91;;;23.79;61.19
60417;BME280;46263;44.726;10.396;2023-08-30T08:14:16;99513.56;;;23.88;61.89
60417;BME280;46263;44.726;10.396;2023-08-30T08:16:41;99515.22;;;23.93;61.93
60417;BME280;46263;44.726;10.396;2023-08-30T08:19:07;99509.63;;;23.95;61.74
60417;BME280;46263;44.726;10.396;2023-08-30T08:21:33;99514.16;;;24.00;60.94
60417;BME280;46263;44.726;10.396;2023-08-30T08:23:59;99511.50;;;24.04;59.68
60417;BME280;46263;44.726;10.396;2023-08-30T08:26:25;99520.19;;;24.06;60.96
60417;BME280;46263;44.726;10.396;2023-08-30T08:28:50;99519.28;;;24.17;61.40
60417;BME280;46263;44.726;10.396;2023-08-30T08:31:16;99516.75;;;24.23;60.46
60417;BME280;46263;44.726;10.396;2023-08-30T08:33:41;99513.91;;;24.23;61.50
60417;BME280;46263;44.726;10.396;2023-08-30T08:36:07;99513.91;;;24.23;62.32
60417;BME280;46263;44.726;10.396;2023-08-30T08:38:32;99521.69;;;24.36;63.01
60417;BME280;46263;44.726;10.396;2023-08-30T08:41:03;99525.19;;;24.34;60.69
60417;BME280;46263;44.726;10.396;2023-08-30T08:43:32;99521.78;;;24.38;60.41
60417;BME280;46263;44.726;10.396;2023-08-30T08:46:00;99530.53;;;24.42;60.59
60417;BME280;46263;44.726;10.396;2023-08-30T08:48:28;99532.06;;;24.43;59.34
60417;BME280;46263;44.726;10.396;2023-08-30T08:50:54;99531.63;;;24.48;59.98
60417;BME280;46263;44.726;10.396;2023-08-30T08:53:21;99537.63;;;24.54;60.69
60417;BME280;46263;44.726;10.396;2023-08-30T08:55:47;99522.88;;;24.60;60.57
60417;BME280;46263;44.726;10.396;2023-08-30T08:58:14;99537.28;;;24.62;60.23
60417;BME280;46263;44.726;10.396;2023-08-30T09:00:42;99533.69;;;24.61;60.01
60417;BME280;46263;44.726;10.396;2023-08-30T09:03:08;99533.69;;;24.61;60.48
60417;BME280;46263;44.726;10.396;2023-08-30T09:05:37;99537.38;;;24.64;61.58
60417;BME280;46263;44.726;10.396;2023-08-30T09:08:02;99535.59;;;24.57;58.94
60417;BME280;46263;44.726;10.396;2023-08-30T09:10:29;99540.16;;;24.62;59.84
60417;BME280;46263;44.726;10.396;2023-08-30T09:12:55;99532.50;;;24.66;59.53
60417;BME280;46263;44.726;10.396;2023-08-30T09:15:20;99537.69;;;24.70;59.21
60417;BME280;46263;44.726;10.396;2023-08-30T09:17:46;99532.25;;;24.76;59.01
60417;BME280;46263;44.726;10.396;2023-08-30T09:20:12;99533.91;;;24.81;57.96
60417;BME280;46263;44.726;10.396;2023-08-30T09:22:42;99536.75;;;24.81;57.88
60417;BME280;46263;44.726;10.396;2023-08-30T09:25:09;99536.31;;;24.86;57.93
60417;BME280;46263;44.726;10.396;2023-08-30T09:27:35;99535.75;;;24.90;56.88
60417;BME280;46263;44.726;10.396;2023-08-30T09:30:04;99538.00;;;24.91;56.72
60417;BME280;46263;44.726;10.396;2023-08-30T09:32:30;99541.41;;;24.88;55.68
60417;BME280;46263;44.726;10.396;2023-08-30T09:34:56;99546.66;;;24.93;57.19
60417;BME280;46263;44.726;10.396;2023-08-30T09:37:22;99549.28;;;25.02;57.09
60417;BME280;46263;44.726;10.396;2023-08-30T09:39:51;99544.38;;;25.05;56.61
60417;BME280;46263;44.726;10.396;2023-08-30T09:42:17;99547.88;;;25.03;56.65
60417;BME280;46263;44.726;10.396;2023-08-30T09:44:43;99560.88;;;25.06;57.79
60417;BME280;46263;44.726;10.396;2023-08-30T09:47:12;99555.47;;;25.12;57.91
60417;BME280;46263;44.726;10.396;2023-08-30T09:49:45;99559.34;;;25.19;56.55
60417;BME280;46263;44.726;10.396;2023-08-30T09:52:15;99559.56;;;25.23;55.71
60417;BME280;46263;44.726;10.396;2023-08-30T09:54:41;99549.59;;;25.24;56.71
60417;BME280;46263;44.726;10.396;2023-08-30T09:57:10;99553.34;;;25.28;56.49
60417;BME280;46263;44.726;10.396;2023-08-30T09:59:36;99555.22;;;25.37;56.88
60417;BME280;46263;44.726;10.396;2023-08-30T10:02:03;99548.09;;;25.38;55.18
60417;BME280;46263;44.726;10.396;2023-08-30T10:04:31;99551.44;;;25.48;56.38
60417;BME280;46263;44.726;10.396;2023-08-30T10:06:56;99553.06;;;25.53;55.81
60417;BME280;46263;44.726;10.396;2023-08-30T10:09:24;99553.06;;;25.53;55.18
60417;BME280;46263;44.726;10.396;2023-08-30T10:11:50;99547.72;;;25.61;55.27
60417;BME280;46263;44.726;10.396;2023-08-30T10:14:16;99546.63;;;25.68;54.92
60417;BME280;46263;44.726;10.396;2023-08-30T10:19:23;99547.50;;;25.73;55.06
60417;BME280;46263;44.726;10.396;2023-08-30T10:21:55;99543.56;;;25.80;54.29
60417;BME280;46263;44.726;10.396;2023-08-30T10:24:26;99544.50;;;25.84;53.53
60417;BME280;46263;44.726;10.396;2023-08-30T10:26:53;99546.22;;;25.91;55.91
60417;BME280;46263;44.726;10.396;2023-08-30T10:29:20;99536.25;;;25.92;54.68
60417;BME280;46263;44.726;10.396;2023-08-30T10:31:46;99541.97;;;25.92;53.82
60417;BME280;46263;44.726;10.396;2023-08-30T10:34:14;99548.63;;;25.96;53.85
60417;BME280;46263;44.726;10.396;2023-08-30T10:36:42;99552.31;;;25.99;53.46
60417;BME280;46263;44.726;10.396;2023-08-30T10:39:12;99544.53;;;26.01;53.07
60417;BME280;46263;44.726;10.396;2023-08-30T10:41:54;99543.88;;;26.03;53.97
